Time;durP1;ratioP1;P1;durP2;ratioP2;P2;SDS_P1;SDS_P2;PMS_P1;PMS_P2;Temp;Humidity;BMP_temperature;BMP_pressure;BME280_temperature;BME280_humidity;BME280_pressure;Samples;Min_cycle;Max_cycle;Signal;HPM_P1;HPM_P2
2021/01/23 00:01:57;;;;;;;21.52;9.65;;;4.80;97.30;;;;;;5072041;28;20052;-73
2021/01/23 00:04:23;;;;;;;22.35;9.70;;;4.80;97.30;;;;;;5072065;28;20047;-73
2021/01/23 00:06:49;;;;;;;24.50;9.27;;;4.80;97.20;;;;;;5071982;28;20366;-73
2021/01/23 00:09:14;;;;;;;17.33;9.45;;;4.80;97.20;;;;;;5073663;28;20025;-73
2021/01/23 00:11:40;;;;;;;24.23;10.10;;;4.80;97.30;;;;;;5071852;28;20033;-73
2021/01/23 00:14:05;;;;;;;21.33;10.70;;;4.70;97.20;;;;;;5072077;28;20032;-73
2021/01/23 00:16:31;;;;;;;21.55;9.90;;;4.70;97.30;;;;;;5071190;28;20044;-73
2021/01/23 00:18:57;;;;;;;22.92;9.25;;;4.80;97.40;;;;;;5071900;28;20047;-73
2021/01/23 00:21:22;;;;;;;21.08;10.10;;;4.80;97.30;;;;;;5073396;28;20108;-74
2021/01/23 00:23:48;;;;;;;21.48;10.35;;;4.80;97.20;;;;;;5071946;28;20450;-73
2021/01/23 00:26:14;;;;;;;18.15;10.38;;;4.80;97.30;;;;;;5074662;28;20087;-73
2021/01/23 00:28:39;;;;;;;18.85;10.25;;;4.90;97.30;;;;;;5076173;28;20102;-73
2021/01/23 00:31:05;;;;;;;23.70;10.18;;;4.80;97.20;;;;;;5075978;28;20120;-73
2021/01/23 00:33:31;;;;;;;21.13;10.40;;;4.90;97.30;;;;;;5077243;28;20016;-72
2021/01/23 00:35:56;;;;;;;21.05;10.52;;;4.80;97.20;;;;;;5076311;28;20059;-72
2021/01/23 00:38:22;;;;;;;24.88;10.32;;;4.90;97.30;;;;;;5074862;28;20092;-73
2021/01/23 00:40:47;;;;;;;20.90;9.82;;;4.90;97.20;;;;;;5074960;28;20314;-73
2021/01/23 00:43:13;;;;;;;19.98;10.65;;;4.70;97.20;;;;;;5075503;28;20041;-73
2021/01/23 00:45:39;;;;;;;18.05;10.00;;;4.70;97.40;;;;;;5075722;28;20362;-73
2021/01/23 00:48:11;;;;;;;20.67;10.70;;;4.60;97.40;;;;;;5077163;28;20021;-73
2021/01/23 00:50:38;;;;;;;21.17;10.57;;;4.70;97.60;;;;;;5075431;28;20075;-72
2021/01/23 00:53:04;;;;;;;21.02;10.15;;;4.60;97.50;;;;;;5075675;28;20097;-72
2021/01/23 00:55:30;;;;;;;21.48;11.45;;;4.60;97.60;;;;;;5075496;28;20032;-72
2021/01/23 00:57:56;;;;;;;18.75;10.25;;;4.50;97.70;;;;;;5075324;28;20478;-72
2021/01/23 01:00:22;;;;;;;19.08;10.65;;;4.60;97.70;;;;;;5076900;28;20030;-72
2021/01/23 01:02:48;;;;;;;25.85;11.18;;;4.60;97.60;;;;;;5075407;28;20033;-73
2021/01/23 01:05:14;;;;;;;21.80;10.38;;;4.60;97.60;;;;;;5074326;28;20502;-73
2021/01/23 01:07:41;;;;;;;25.08;10.93;;;4.70;97.70;;;;;;5074206;28;20051;-73
2021/01/23 01:10:07;;;;;;;26.13;11.60;;;4.60;97.60;;;;;;5075246;28;20051;-72
2021/01/23 01:12:33;;;;;;;23.83;11.45;;;4.70;97.70;;;;;;5075161;28;20113;-72
2021/01/23 01:14:58;;;;;;;24.95;11.23;;;4.80;97.60;;;;;;5076690;28;20347;-73
2021/01/23 01:17:24;;;;;;;22.70;11.23;;;5.00;97.50;;;;;;5075217;28;20032;-74
2021/01/23 01:19:50;;;;;;;19.95;11.45;;;5.00;97.40;;;;;;5074679;28;20094;-73
2021/01/23 01:22:15;;;;;;;27.15;11.68;;;5.10;97.30;;;;;;5074025;28;20059;-73
2021/01/23 01:24:41;;;;;;;25.77;11.73;;;5.10;97.20;;;;;;5075022;28;20119;-73
2021/01/23 01:27:06;;;;;;;22.77;11.27;;;5.00;97.10;;;;;;5076575;28;20020;-73
2021/01/23 01:29:32;;;;;;;21.75;10.02;;;4.90;97.20;;;;;;5074661;28;20340;-73
2021/01/23 01:31:58;;;;;;;20.95;10.15;;;4.80;97.20;;;;;;5074726;28;20051;-72
2021/01/23 01:34:23;;;;;;;24.23;10.65;;;4.70;97.40;;;;;;5066570;28;20033;-73
2021/01/23 01:36:49;;;;;;;19.88;11.50;;;4.60;97.60;;;;;;5054785;28;20436;-72
2021/01/23 01:39:14;;;;;;;19.98;9.80;;;4.60;97.60;;;;;;5056108;28;20413;-73
2021/01/23 01:41:40;;;;;;;28.33;11.15;;;4.60;97.70;;;;;;5054782;28;20041;-73
2021/01/23 01:44:07;;;;;;;24.48;11.38;;;4.70;97.70;;;;;;5067702;28;20029;-73
2021/01/23 01:46:34;;;;;;;25.00;12.13;;;4.80;97.70;;;;;;5074517;28;20051;-72
2021/01/23 01:49:01;;;;;;;25.83;12.52;;;4.80;97.60;;;;;;5074192;28;20028;-74
2021/01/23 01:51:27;;;;;;;25.48;12.13;;;4.90;97.70;;;;;;5075941;28;20104;-73
2021/01/23 01:53:55;;;;;;;26.58;13.02;;;5.00;97.70;;;;;;5074482;28;20067;-73
2021/01/23 01:56:20;;;;;;;28.25;12.93;;;5.00;97.60;;;;;;5074555;28;20474;-73
2021/01/23 01:58:46;;;;;;;28.42;12.15;;;5.10;97.60;;;;;;5073225;28;20035;-73
2021/01/23 02:01:12;;;;;;;21.48;11.13;;;5.10;97.50;;;;;;5074181;28;20478;-73
2021/01/23 02:04:02;;;;;;;23.80;11.98;;;5.10;97.40;;;;;;5073847;28;20351;-72
2021/01/23 02:06:33;;;;;;;22.00;11.98;;;5.20;97.40;;;;;;5064049;28;20063;-73
2021/01/23 02:09:08;;;;;;;19.65;11.13;;;5.20;97.30;;;;;;5074520;28;20043;-72
2021/01/23 02:11:55;;;;;;;21.50;10.45;;;5.10;97.00;;;;;;5072882;28;20028;-72
2021/01/23 02:14:35;;;;;;;23.42;12.15;;;5.00;97.20;;;;;;5073175;28;20171;-72
2021/01/23 02:17:07;;;;;;;22.48;10.55;;;5.10;97.40;;;;;;5073490;28;20040;-72
2021/01/23 02:20:02;;;;;;;24.55;12.93;;;5.10;97.20;;;;;;5073779;28;20126;-72
2021/01/23 02:22:45;;;;;;;23.63;11.35;;;5.10;97.40;;;;;;5073756;28;20028;-73
2021/01/23 02:25:13;;;;;;;25.48;11.85;;;5.20;97.40;;;;;;5073925;28;20081;-73
2021/01/23 02:27:51;;;;;;;29.17;11.82;;;5.20;97.40;;;;;;5073954;28;20021;-72
2021/01/23 02:30:58;;;;;;;24.05;12.00;;;5.20;97.40;;;;;;5075284;28;20028;-72
2021/01/23 02:33:27;;;;;;;29.42;12.20;;;5.30;97.40;;;;;;5073439;28;20043;-73
2021/01/23 02:35:53;;;;;;;20.35;10.90;;;5.30;97.30;;;;;;5072394;28;20040;-73
2021/01/23 02:38:19;;;;;;;23.67;11.50;;;5.30;97.30;;;;;;5073455;28;20048;-75
2021/01/23 02:40:46;;;;;;;22.05;11.55;;;5.40;97.30;;;;;;5073202;28;20041;-73
2021/01/23 02:43:12;;;;;;;23.00;11.05;;;5.40;97.30;;;;;;5073491;28;20094;-73
2021/01/23 02:45:37;;;;;;;24.58;11.90;;;5.40;97.20;;;;;;5072313;28;20033;-71
2021/01/23 02:48:04;;;;;;;24.17;12.00;;;5.40;97.20;;;;;;5074225;28;20346;-73
2021/01/23 02:50:29;;;;;;;28.20;12.05;;;5.40;97.30;;;;;;5073210;28;20087;-73
2021/01/23 02:53:10;;;;;;;22.35;11.63;;;5.40;97.20;;;;;;5073354;28;20079;-72
2021/01/23 02:55:41;;;;;;;20.35;11.15;;;5.30;97.20;;;;;;5072905;28;20126;-74
2021/01/23 02:58:08;;;;;;;24.98;12.13;;;5.30;97.20;;;;;;5073374;28;20024;-72
2021/01/23 03:00:36;;;;;;;19.63;11.25;;;5.30;97.20;;;;;;5072973;28;20040;-72
2021/01/23 03:03:02;;;;;;;23.02;10.90;;;5.30;97.20;;;;;;5074516;28;20021;-73
2021/01/23 03:05:31;;;;;;;23.65;11.40;;;5.30;97.20;;;;;;5073078;28;20360;-73
2021/01/23 03:07:57;;;;;;;22.58;11.25;;;5.10;97.30;;;;;;5072383;28;20029;-72
2021/01/23 03:10:39;;;;;;;20.55;10.73;;;5.10;97.70;;;;;;5071794;28;20407;-72
2021/01/23 03:13:06;;;;;;;28.95;11.98;;;5.20;97.40;;;;;;5072634;28;20043;-72
2021/01/23 03:15:33;;;;;;;22.25;12.02;;;5.20;97.40;;;;;;5073069;28;20051;-73
2021/01/23 03:17:59;;;;;;;25.23;12.50;;;5.30;97.40;;;;;;5074165;28;20393;-74
2021/01/23 03:20:26;;;;;;;28.48;12.27;;;5.30;97.30;;;;;;5071703;28;20064;-73
2021/01/23 03:22:55;;;;;;;22.63;11.63;;;5.30;97.30;;;;;;5072718;28;20037;-73
2021/01/23 03:25:21;;;;;;;27.98;12.88;;;5.30;97.40;;;;;;5072438;28;20039;-73
2021/01/23 03:27:47;;;;;;;28.80;12.80;;;5.30;97.30;;;;;;5071460;28;20445;-73
2021/01/23 03:30:14;;;;;;;24.52;11.43;;;5.30;97.20;;;;;;5074173;28;20032;-74
2021/01/23 03:32:39;;;;;;;26.80;12.25;;;5.30;97.30;;;;;;5072498;28;20056;-73
2021/01/23 03:35:06;;;;;;;25.88;12.98;;;5.30;97.30;;;;;;5071631;28;20410;-73
2021/01/23 03:37:33;;;;;;;28.40;13.10;;;5.40;97.30;;;;;;5071690;28;20029;-73
2021/01/23 03:40:00;;;;;;;22.27;12.57;;;5.40;97.30;;;;;;5072225;28;20051;-73
2021/01/23 03:42:26;;;;;;;23.38;12.27;;;5.40;97.30;;;;;;5073927;28;20100;-74
2021/01/23 03:44:51;;;;;;;21.88;12.27;;;5.30;97.20;;;;;;5072167;28;20068;-73
2021/01/23 03:47:17;;;;;;;24.55;11.65;;;5.40;97.30;;;;;;5057506;28;20071;-73
2021/01/23 03:49:43;;;;;;;25.33;10.80;;;5.40;97.20;;;;;;5061769;28;20078;-74
2021/01/23 03:52:08;;;;;;;23.55;11.88;;;5.30;97.20;;;;;;5072140;28;20033;-73
2021/01/23 03:54:34;;;;;;;31.23;13.10;;;5.30;97.20;;;;;;5072493;28;20020;-75
2021/01/23 03:57:00;;;;;;;22.80;12.52;;;5.30;97.30;;;;;;5073739;28;20358;-75
2021/01/23 03:59:25;;;;;;;27.33;13.38;;;5.30;97.40;;;;;;5071061;28;20051;-73
2021/01/23 04:01:51;;;;;;;28.65;12.95;;;5.20;97.40;;;;;;5071688;28;20066;-73
2021/01/23 04:04:16;;;;;;;35.38;13.82;;;5.30;97.40;;;;;;5072128;28;20044;-73
2021/01/23 04:06:43;;;;;;;25.15;12.32;;;5.30;97.40;;;;;;5071940;28;20359;-73
2021/01/23 04:09:08;;;;;;;25.85;12.80;;;5.30;97.30;;;;;;5073721;28;20108;-72
2021/01/23 04:11:34;;;;;;;29.55;13.27;;;5.40;97.30;;;;;;5072093;28;20120;-74
2021/01/23 04:14:00;;;;;;;23.92;13.25;;;5.30;97.30;;;;;;5071997;28;20036;-73
2021/01/23 04:16:26;;;;;;;25.85;12.35;;;5.30;97.40;;;;;;5071964;28;20054;-73
2021/01/23 04:18:51;;;;;;;21.88;10.57;;;5.30;97.50;;;;;;5071612;28;20041;-72
2021/01/23 04:21:17;;;;;;;25.77;13.13;;;5.20;97.50;;;;;;5073397;28;20075;-74
2021/01/23 04:23:44;;;;;;;26.10;13.23;;;5.30;97.50;;;;;;5070974;28;20036;-74
2021/01/23 04:26:11;;;;;;;23.30;12.45;;;5.30;97.50;;;;;;5071883;28;20124;-73
2021/01/23 04:28:37;;;;;;;24.47;13.20;;;5.20;97.40;;;;;;5072017;28;20036;-72
2021/01/23 04:31:03;;;;;;;30.15;13.50;;;5.10;97.50;;;;;;5071783;28;20098;-72
2021/01/23 04:33:30;;;;;;;27.17;13.10;;;5.20;97.60;;;;;;5073346;28;20090;-72
2021/01/23 04:35:55;;;;;;;25.88;12.77;;;5.20;97.60;;;;;;5072036;28;20115;-72
2021/01/23 04:38:21;;;;;;;27.48;12.88;;;5.20;97.50;;;;;;5071968;28;20263;-72
2021/01/23 04:40:47;;;;;;;27.25;12.98;;;5.20;97.50;;;;;;5071391;28;20515;-71
2021/01/23 04:43:12;;;;;;;26.90;13.02;;;5.30;97.50;;;;;;5071865;28;20051;-72
2021/01/23 04:45:39;;;;;;;21.40;11.88;;;5.30;97.50;;;;;;5071789;28;20016;-73
2021/01/23 04:48:05;;;;;;;30.75;14.48;;;5.20;97.50;;;;;;5073151;28;20115;-72
2021/01/23 04:50:31;;;;;;;27.13;13.20;;;5.00;97.50;;;;;;5071193;28;20032;-72
2021/01/23 04:52:56;;;;;;;29.88;14.48;;;5.20;97.70;;;;;;5071373;28;20028;-73
2021/01/23 04:55:22;;;;;;;28.88;12.75;;;5.20;97.50;;;;;;5071619;28;20044;-72
2021/01/23 04:57:48;;;;;;;30.88;13.90;;;5.20;97.60;;;;;;5071605;28;20344;-73
2021/01/23 05:00:14;;;;;;;33.08;14.55;;;5.10;97.60;;;;;;5073081;28;20028;-72
2021/01/23 05:02:39;;;;;;;24.67;13.07;;;5.20;97.60;;;;;;5071753;28;20029;-72
2021/01/23 05:05:07;;;;;;;29.02;14.65;;;5.20;97.60;;;;;;5071308;28;20111;-73
2021/01/23 05:07:40;;;;;;;30.73;14.55;;;5.30;97.60;;;;;;5071354;28;20033;-73
2021/01/23 05:10:23;;;;;;;26.40;12.55;;;5.30;97.50;;;;;;5071530;28;20454;-73
2021/01/23 05:12:54;;;;;;;32.80;14.13;;;5.30;97.40;;;;;;5075009;28;20117;-73
2021/01/23 05:15:32;;;;;;;28.05;14.05;;;5.40;97.60;;;;;;5076790;28;20024;-73
2021/01/23 05:18:05;;;;;;;29.70;13.02;;;5.50;97.50;;;;;;5075278;28;20032;-73
2021/01/23 05:20:38;;;;;;;29.73;12.82;;;5.40;97.40;;;;;;5074772;28;20430;-72
2021/01/23 05:23:27;;;;;;;23.55;11.55;;;5.40;97.50;;;;;;5074930;28;20055;-72
2021/01/23 05:25:52;;;;;;;27.60;13.15;;;5.40;97.50;;;;;;5074699;28;20051;-73
2021/01/23 05:28:35;;;;;;;28.90;13.40;;;5.40;97.40;;;;;;5074861;28;20112;-74
2021/01/23 05:31:02;;;;;;;25.02;12.82;;;5.30;97.40;;;;;;5074974;28;20055;-73
2021/01/23 05:33:33;;;;;;;25.83;13.82;;;5.30;97.50;;;;;;5075269;28;20040;-72
2021/01/23 05:36:09;;;;;;;37.67;14.32;;;5.20;97.50;;;;;;5075073;28;20033;-72
2021/01/23 05:38:39;;;;;;;27.50;14.30;;;5.20;97.60;;;;;;5073255;28;20048;-73
2021/01/23 05:41:08;;;;;;;32.30;14.52;;;5.30;97.60;;;;;;5073339;28;20111;-72
2021/01/23 05:43:43;;;;;;;31.38;14.10;;;5.30;97.50;;;;;;5073733;28;20043;-73
2021/01/23 05:46:28;;;;;;;26.08;13.50;;;5.30;97.40;;;;;;5074476;28;20025;-72
2021/01/23 05:48:55;;;;;;;27.40;13.95;;;5.30;97.50;;;;;;5073722;28;20350;-73
2021/01/23 05:51:21;;;;;;;24.40;12.33;;;5.30;97.50;;;;;;5076068;28;20025;-72
2021/01/23 05:53:48;;;;;;;23.50;12.75;;;5.10;97.60;;;;;;5074540;28;20430;-72
2021/01/23 05:56:14;;;;;;;31.55;14.60;;;5.10;97.70;;;;;;5074464;28;20048;-72
2021/01/23 05:58:41;;;;;;;28.65;14.77;;;5.10;97.80;;;;;;5074233;28;20082;-73
2021/01/23 06:01:14;;;;;;;34.03;15.20;;;5.20;97.70;;;;;;5074200;28;20044;-73
2021/01/23 06:03:40;;;;;;;31.00;14.20;;;5.20;97.70;;;;;;5073898;28;20269;-72
2021/01/23 06:06:06;;;;;;;34.67;16.25;;;5.10;98.00;;;;;;5075676;28;20074;-72
2021/01/23 06:08:52;;;;;;;34.08;14.27;;;5.10;97.80;;;;;;5072899;28;20044;-72
2021/01/23 06:11:20;;;;;;;31.63;14.18;;;5.10;97.80;;;;;;5073887;28;20028;-72
2021/01/23 06:13:50;;;;;;;33.50;14.48;;;5.10;97.80;;;;;;5074084;28;20029;-74
2021/01/23 06:16:34;;;;;;;32.92;15.52;;;5.10;97.80;;;;;;5073961;28;20036;-73
2021/01/23 06:19:02;;;;;;;30.42;14.65;;;5.10;97.80;;;;;;5073744;28;20524;-72
2021/01/23 06:21:49;;;;;;;32.40;15.48;;;5.20;97.80;;;;;;5075352;28;20431;-73
2021/01/23 06:24:16;;;;;;;31.50;14.90;;;5.10;97.80;;;;;;5073227;28;20040;-72
2021/01/23 06:26:54;;;;;;;35.25;15.65;;;5.20;97.90;;;;;;5073740;28;20369;-73
2021/01/23 06:29:45;;;;;;;32.95;15.10;;;5.20;97.70;;;;;;5073528;28;20037;-74
2021/01/23 06:32:19;;;;;;;34.70;15.75;;;5.40;97.80;;;;;;5073707;28;20032;-73
2021/01/23 06:34:53;;;;;;;33.65;15.32;;;5.20;97.70;;;;;;5073752;28;20025;-74
2021/01/23 06:37:29;;;;;;;28.77;14.02;;;5.30;97.50;;;;;;5073743;28;20029;-74
2021/01/23 06:40:04;;;;;;;33.88;15.30;;;5.30;97.60;;;;;;5072149;28;20425;-74
2021/01/23 06:42:30;;;;;;;37.65;15.88;;;5.20;97.60;;;;;;5075037;28;20035;-73
2021/01/23 06:45:08;;;;;;;28.15;14.95;;;5.10;97.70;;;;;;5072578;28;20454;-74
2021/01/23 06:47:39;;;;;;;30.40;15.07;;;5.10;97.70;;;;;;5053098;28;20080;-73
2021/01/23 06:50:05;;;;;;;29.42;16.02;;;5.10;97.80;;;;;;5052220;28;20037;-74
2021/01/23 06:52:31;;;;;;;29.95;15.27;;;5.00;97.80;;;;;;5052399;28;20039;-73
2021/01/23 06:54:56;;;;;;;28.20;14.40;;;5.10;97.90;;;;;;5053200;28;20033;-74
2021/01/23 06:57:22;;;;;;;31.58;14.77;;;5.00;97.90;;;;;;5054769;28;20513;-73
2021/01/23 06:59:49;;;;;;;32.33;15.77;;;5.10;97.90;;;;;;5053182;28;20051;-73
2021/01/23 07:02:16;;;;;;;30.95;15.15;;;5.10;97.90;;;;;;5053356;28;20036;-74
2021/01/23 07:04:49;;;;;;;28.60;14.93;;;5.00;97.90;;;;;;5053279;28;20371;-73
2021/01/23 07:07:18;;;;;;;29.92;14.30;;;5.00;97.90;;;;;;5053008;28;20036;-74
2021/01/23 07:09:49;;;;;;;34.55;15.30;;;5.00;97.90;;;;;;5052060;28;20040;-72
2021/01/23 07:12:36;;;;;;;35.67;15.82;;;5.00;98.00;;;;;;5054490;28;20047;-72
2021/01/23 07:15:06;;;;;;;31.23;14.98;;;5.00;98.00;;;;;;5053018;28;20037;-70
2021/01/23 07:17:43;;;;;;;35.33;17.45;;;4.90;98.10;;;;;;5052782;28;20397;-72
2021/01/23 07:20:10;;;;;;;31.20;16.60;;;4.90;98.10;;;;;;5052816;28;20041;-71
2021/01/23 07:22:39;;;;;;;39.53;19.45;;;5.00;98.10;;;;;;5051656;28;20029;-73
2021/01/23 07:25:08;;;;;;;37.70;17.73;;;5.00;98.20;;;;;;5052640;28;20032;-73
2021/01/23 07:27:38;;;;;;;31.98;15.50;;;5.00;98.40;;;;;;5051957;28;20405;-72
2021/01/23 07:30:14;;;;;;;35.45;14.70;;;5.00;98.10;;;;;;5034284;28;20099;-73
2021/01/23 07:32:41;;;;;;;31.85;13.88;;;5.10;98.10;;;;;;5049972;28;20036;-74
2021/01/23 07:35:08;;;;;;;32.28;14.52;;;5.10;98.00;;;;;;5052442;28;20370;-73
2021/01/23 07:38:00;;;;;;;27.20;13.98;;;5.10;98.00;;;;;;5052483;28;20115;-73
2021/01/23 07:40:31;;;;;;;27.75;13.52;;;5.20;98.00;;;;;;5052321;28;20065;-73
2021/01/23 07:42:59;;;;;;;36.47;16.10;;;5.20;97.90;;;;;;5048639;28;20447;-73
2021/01/23 07:45:24;;;;;;;34.97;15.05;;;5.20;98.00;;;;;;5034110;28;20021;-72
2021/01/23 07:47:56;;;;;;;28.42;14.38;;;5.30;98.00;;;;;;5032454;28;20033;-74
2021/01/23 07:50:23;;;;;;;31.10;14.50;;;5.30;97.80;;;;;;5047417;28;20407;-73
2021/01/23 07:52:48;;;;;;;25.83;13.85;;;5.30;97.90;;;;;;5051993;28;20132;-73
2021/01/23 07:55:14;;;;;;;29.20;13.57;;;5.30;97.70;;;;;;5052114;28;20132;-71
2021/01/23 07:57:40;;;;;;;35.75;14.68;;;5.30;97.80;;;;;;5052135;28;20047;-71
2021/01/23 08:00:07;;;;;;;28.65;14.93;;;5.30;97.90;;;;;;5053528;28;20021;-71
2021/01/23 08:02:52;;;;;;;30.20;15.03;;;5.30;97.80;;;;;;5050840;28;20520;-72
2021/01/23 08:05:18;;;;;;;29.05;13.80;;;5.20;97.80;;;;;;5052090;28;20262;-73
2021/01/23 08:07:45;;;;;;;30.48;14.98;;;5.10;98.00;;;;;;5050578;28;20025;-74
2021/01/23 08:10:16;;;;;;;32.90;16.50;;;5.20;98.00;;;;;;5051991;28;20079;-73
2021/01/23 08:12:51;;;;;;;34.67;15.65;;;5.30;98.00;;;;;;5050902;28;20519;-72
2021/01/23 08:15:30;;;;;;;34.70;16.45;;;5.20;97.90;;;;;;5053305;28;20086;-72
2021/01/23 08:17:57;;;;;;;29.00;15.00;;;5.30;97.90;;;;;;5051734;28;20112;-76
2021/01/23 08:20:34;;;;;;;32.90;15.27;;;5.30;97.90;;;;;;5050605;28;20443;-72
2021/01/23 08:23:09;;;;;;;33.80;14.98;;;5.30;97.90;;;;;;5051091;28;20262;-71
2021/01/23 08:25:55;;;;;;;30.73;15.25;;;5.10;98.00;;;;;;5051809;28;20047;-72
2021/01/23 08:28:33;;;;;;;28.30;13.93;;;5.20;98.00;;;;;;5050679;28;20040;-75
2021/01/23 08:31:15;;;;;;;31.98;14.77;;;5.30;98.20;;;;;;5052149;28;20032;-73
2021/01/23 08:33:42;;;;;;;26.73;13.57;;;5.30;98.10;;;;;;5051913;28;20021;-73
2021/01/23 08:36:09;;;;;;;31.77;15.32;;;5.30;98.20;;;;;;5053411;28;20025;-71
2021/01/23 08:38:34;;;;;;;32.05;15.15;;;5.40;98.10;;;;;;5051714;28;20124;-72
2021/01/23 08:41:01;;;;;;;27.08;13.90;;;5.50;98.00;;;;;;5051633;28;20411;-73
2021/01/23 08:43:28;;;;;;;27.02;13.85;;;5.60;97.90;;;;;;5051214;28;20102;-74
2021/01/23 08:45:55;;;;;;;25.50;14.18;;;5.60;97.70;;;;;;5052411;28;20031;-85
2021/01/23 08:48:20;;;;;;;37.08;15.30;;;5.70;97.80;;;;;;5058780;28;20086;-78
2021/01/23 08:50:46;;;;;;;32.10;15.13;;;5.70;97.60;;;;;;5055700;28;20391;-78
2021/01/23 08:53:12;;;;;;;26.55;13.48;;;5.70;97.60;;;;;;5057697;28;20029;-82
2021/01/23 08:55:37;;;;;;;34.60;15.63;;;5.70;97.50;;;;;;5059677;28;20029;-78
2021/01/23 08:58:03;;;;;;;30.30;13.82;;;5.80;97.50;;;;;;5055616;28;20565;-75
2021/01/23 09:00:29;;;;;;;24.50;13.57;;;5.90;97.50;;;;;;5059009;28;20060;-82
2021/01/23 09:02:54;;;;;;;29.80;14.40;;;5.90;97.40;;;;;;5062058;28;20171;-81
2021/01/23 09:05:20;;;;;;;29.50;14.65;;;5.90;97.30;;;;;;5059245;28;20028;-78
2021/01/23 09:07:46;;;;;;;32.67;14.45;;;6.00;97.70;;;;;;5057340;28;20032;-78
2021/01/23 09:10:12;;;;;;;36.30;15.05;;;5.90;97.30;;;;;;5054284;28;20025;-76
2021/01/23 09:12:39;;;;;;;32.50;13.48;;;5.90;97.30;;;;;;5055362;28;20106;-77
2021/01/23 09:15:06;;;;;;;24.45;13.05;;;6.00;97.20;;;;;;5059012;28;20155;-78
2021/01/23 09:17:32;;;;;;;27.35;13.40;;;6.00;97.20;;;;;;5055937;28;20401;-77
2021/01/23 09:19:58;;;;;;;29.67;13.07;;;6.10;97.00;;;;;;5055465;28;20036;-75
2021/01/23 09:22:24;;;;;;;22.77;12.18;;;6.10;97.00;;;;;;5054568;28;20119;-75
2021/01/23 09:24:50;;;;;;;27.73;12.65;;;6.20;96.80;;;;;;5053910;28;20025;-80
2021/01/23 09:27:15;;;;;;;27.45;12.55;;;6.20;97.10;;;;;;5056059;28;20024;-79
2021/01/23 09:29:41;;;;;;;26.05;13.23;;;6.20;96.70;;;;;;5053514;28;20056;-78
2021/01/23 09:32:07;;;;;;;23.42;11.90;;;6.30;96.70;;;;;;5054830;28;20033;-76
2021/01/23 09:34:35;;;;;;;29.33;12.07;;;6.40;96.70;;;;;;5053867;28;20044;-77
2021/01/23 09:37:03;;;;;;;22.38;11.75;;;6.30;96.40;;;;;;5054778;28;20033;-76
2021/01/23 09:39:30;;;;;;;26.50;12.43;;;6.40;96.30;;;;;;5055082;28;20352;-80
2021/01/23 09:41:57;;;;;;;27.02;12.98;;;6.30;96.20;;;;;;5053916;28;20029;-77
2021/01/23 09:44:23;;;;;;;25.20;12.35;;;6.40;96.20;;;;;;5054413;28;20125;-77
2021/01/23 09:46:49;;;;;;;22.17;11.27;;;6.30;96.30;;;;;;5054508;28;20116;-74
2021/01/23 09:49:16;;;;;;;27.25;12.50;;;6.40;96.30;;;;;;5048887;28;20073;-82
2021/01/23 09:51:41;;;;;;;24.63;12.10;;;6.40;96.30;;;;;;5036220;28;20021;-85
2021/01/23 09:54:08;;;;;;;23.63;12.25;;;6.40;96.20;;;;;;5056701;28;20116;-84
2021/01/23 09:56:34;;;;;;;22.33;11.63;;;6.40;96.20;;;;;;5054615;28;20106;-75
2021/01/23 09:58:59;;;;;;;24.38;12.82;;;6.50;96.20;;;;;;5053706;28;20083;-74
2021/01/23 10:01:25;;;;;;;24.58;11.98;;;6.60;96.20;;;;;;5053251;28;20037;-73
2021/01/23 10:03:50;;;;;;;28.00;12.50;;;6.70;95.90;;;;;;5054117;28;20040;-72
2021/01/23 10:06:16;;;;;;;27.40;12.48;;;6.70;96.00;;;;;;5055913;28;20060;-74
2021/01/23 10:08:42;;;;;;;25.60;12.25;;;6.80;95.90;;;;;;5054013;28;20111;-74
2021/01/23 10:11:08;;;;;;;26.88;12.07;;;7.00;95.80;;;;;;5054179;28;20040;-74
2021/01/23 10:13:33;;;;;;;23.13;11.68;;;7.00;95.70;;;;;;5054116;28;20134;-71
2021/01/23 10:15:59;;;;;;;23.83;12.00;;;7.10;95.70;;;;;;5053837;28;20083;-71
2021/01/23 10:18:25;;;;;;;27.48;12.43;;;7.10;95.60;;;;;;5055336;28;20405;-74
2021/01/23 10:20:51;;;;;;;26.05;11.95;;;7.10;95.60;;;;;;5052724;28;20471;-75
2021/01/23 10:23:16;;;;;;;21.83;10.57;;;7.30;95.30;;;;;;5052256;28;20386;-72
2021/01/23 10:25:42;;;;;;;18.77;10.55;;;7.40;95.40;;;;;;5052846;28;20382;-74
2021/01/23 10:28:07;;;;;;;23.17;11.60;;;7.40;95.10;;;;;;5053748;28;20029;-75
2021/01/23 10:30:33;;;;;;;18.77;10.50;;;7.50;94.80;;;;;;5053659;28;20499;-69
2021/01/23 10:32:59;;;;;;;22.00;11.23;;;7.60;94.80;;;;;;5055240;28;20064;-70
2021/01/23 10:35:25;;;;;;;21.08;10.40;;;7.50;94.60;;;;;;5052461;28;20041;-71
2021/01/23 10:37:50;;;;;;;18.48;10.85;;;7.60;94.30;;;;;;5053638;28;20495;-71
2021/01/23 10:40:17;;;;;;;22.42;11.15;;;7.70;94.30;;;;;;5053482;28;20053;-70
2021/01/23 10:42:43;;;;;;;19.52;9.23;;;7.80;94.20;;;;;;5053138;28;20481;-71
2021/01/23 10:45:09;;;;;;;19.73;9.50;;;7.90;93.90;;;;;;5053981;28;20027;-72
2021/01/23 10:47:38;;;;;;;22.00;9.73;;;7.90;94.10;;;;;;5053157;28;20462;-72
2021/01/23 10:50:05;;;;;;;16.55;9.05;;;7.90;93.90;;;;;;5053270;28;20049;-71
2021/01/23 10:52:31;;;;;;;18.08;9.23;;;7.90;93.60;;;;;;5051954;28;20355;-71
2021/01/23 10:54:57;;;;;;;19.52;9.32;;;8.00;93.70;;;;;;5053022;28;20037;-74
2021/01/23 10:57:22;;;;;;;19.50;9.20;;;8.10;93.50;;;;;;5054893;28;20351;-70
2021/01/23 10:59:48;;;;;;;17.73;8.73;;;8.20;93.20;;;;;;5053381;28;20048;-72
2021/01/23 11:02:14;;;;;;;22.60;9.55;;;8.30;93.20;;;;;;5053072;28;20060;-76
2021/01/23 11:04:39;;;;;;;17.08;8.45;;;8.30;93.00;;;;;;5051760;28;20047;-73
2021/01/23 11:07:05;;;;;;;18.35;9.30;;;8.40;92.90;;;;;;5052964;28;20033;-72
2021/01/23 11:09:31;;;;;;;18.30;8.43;;;8.40;92.70;;;;;;5052709;28;20056;-75
2021/01/23 11:11:56;;;;;;;22.33;9.57;;;8.60;92.60;;;;;;5054392;28;20037;-83
2021/01/23 11:14:22;;;;;;;18.83;9.02;;;8.60;92.40;;;;;;5051847;28;20067;-71
2021/01/23 11:16:49;;;;;;;17.83;9.05;;;8.50;92.50;;;;;;5052572;28;20115;-71
2021/01/23 11:19:15;;;;;;;22.67;9.05;;;8.60;92.40;;;;;;5052864;28;20025;-72
2021/01/23 11:21:41;;;;;;;19.17;8.00;;;9.20;92.50;;;;;;5051444;28;20044;-71
2021/01/23 11:24:07;;;;;;;17.70;8.43;;;9.60;91.90;;;;;;5053159;28;20017;-72
2021/01/23 11:26:33;;;;;;;15.60;7.68;;;9.70;91.10;;;;;;5052737;28;20029;-72
2021/01/23 11:28:59;;;;;;;15.05;8.63;;;10.10;90.40;;;;;;5052539;28;20115;-70
2021/01/23 11:31:24;;;;;;;13.15;7.78;;;10.30;90.20;;;;;;5052544;28;20480;-71
2021/01/23 11:33:51;;;;;;;14.00;7.63;;;10.40;89.80;;;;;;5051421;28;20028;-72
2021/01/23 11:36:18;;;;;;;13.52;7.55;;;10.70;89.00;;;;;;5054147;28;20351;-71
2021/01/23 11:38:44;;;;;;;21.63;8.63;;;11.10;87.70;;;;;;5052233;28;20053;-73
2021/01/23 11:41:10;;;;;;;15.40;8.00;;;11.30;86.40;;;;;;5051303;28;20059;-73
2021/01/23 11:43:36;;;;;;;15.30;8.05;;;11.40;85.30;;;;;;5052368;28;20466;-72
2021/01/23 11:46:02;;;;;;;17.92;7.55;;;11.10;84.70;;;;;;5052289;28;20029;-72
2021/01/23 11:48:29;;;;;;;14.30;7.80;;;11.20;85.10;;;;;;5053558;28;20451;-84
2021/01/23 11:50:54;;;;;;;15.02;7.28;;;11.00;85.10;;;;;;5050995;28;20532;-72
2021/01/23 11:53:20;;;;;;;17.45;7.50;;;10.90;85.20;;;;;;5050789;28;20044;-72
2021/01/23 11:55:46;;;;;;;18.73;7.05;;;10.90;85.50;;;;;;5052147;28;20040;-72
2021/01/23 11:58:12;;;;;;;18.55;7.55;;;10.70;85.20;;;;;;5052201;28;20542;-72
2021/01/23 12:00:37;;;;;;;14.93;6.88;;;10.70;85.70;;;;;;5052138;28;20102;-71
2021/01/23 12:03:04;;;;;;;19.55;7.38;;;10.50;85.50;;;;;;5053630;28;20438;-70
2021/01/23 12:05:32;;;;;;;15.93;7.28;;;10.40;85.70;;;;;;5051934;28;20493;-72
2021/01/23 12:07:57;;;;;;;;;;;10.20;86.40;;;;;;5052337;28;20145;-71
2021/01/23 12:10:23;;;;;;;11.73;6.28;;;9.90;88.40;;;;;;5050983;28;19991;-71
2021/01/23 12:12:49;;;;;;;12.18;7.28;;;9.90;88.90;;;;;;5051961;28;20025;-71
2021/01/23 12:15:16;;;;;;;11.48;7.38;;;9.90;89.40;;;;;;5053612;28;20511;-71
2021/01/23 12:17:43;;;;;;;15.05;6.55;;;9.80;89.30;;;;;;5033989;28;20423;-72
2021/01/23 12:20:10;;;;;;;12.82;7.15;;;9.70;89.80;;;;;;5044791;28;20029;-71
2021/01/23 12:22:37;;;;;;;14.30;7.40;;;9.50;89.60;;;;;;5051614;28;20051;-72
2021/01/23 12:25:05;;;;;;;12.95;7.10;;;9.50;90.30;;;;;;5051878;28;20273;-77
2021/01/23 12:27:30;;;;;;;18.15;7.93;;;9.50;90.20;;;;;;5053309;28;20036;-71
2021/01/23 12:29:56;;;;;;;17.35;7.45;;;9.50;90.20;;;;;;5051943;28;20036;-71
2021/01/23 12:32:22;;;;;;;15.73;6.72;;;9.60;90.30;;;;;;5051718;28;20157;-71
2021/01/23 12:34:47;;;;;;;14.38;6.70;;;9.60;90.40;;;;;;5052240;28;20045;-70
2021/01/23 12:37:13;;;;;;;12.70;6.18;;;9.80;90.40;;;;;;5050586;28;20029;-72
2021/01/23 12:39:39;;;;;;;13.27;5.75;;;9.90;90.30;;;;;;5051131;28;20061;-69
2021/01/23 12:42:06;;;;;;;18.60;9.27;;;10.00;88.80;;;;;;5053113;28;20130;-72
2021/01/23 12:44:32;;;;;;;11.63;5.77;;;10.10;88.80;;;;;;5051740;28;20040;-71